createdAt,value
2018-10-03T00:00:49.000Z,23.79
2018-10-03T00:01:48.951Z,23.72
2018-10-03T00:02:48.962Z,23.69
2018-10-03T00:03:48.928Z,23.69
2018-10-03T00:04:48.921Z,23.74
2018-10-03T00:05:48.953Z,23.77
2018-10-03T00:06:48.925Z,23.75
2018-10-03T00:07:48.922Z,23.71
2018-10-03T00:08:49.000Z,23.74
2018-10-03T00:09:48.942Z,23.69
2018-10-03T00:10:48.923Z,23.69
2018-10-03T00:11:48.898Z,23.75
2018-10-03T00:12:48.927Z,23.64
2018-10-03T00:13:48.900Z,23.78
2018-10-03T00:14:48.881Z,23.60
2018-10-03T00:15:48.871Z,23.60
2018-10-03T00:16:48.879Z,23.63
2018-10-03T00:17:48.866Z,23.60
2018-10-03T00:18:48.847Z,23.64
2018-10-03T00:19:48.873Z,23.68
2018-10-03T00:20:48.887Z,23.59
2018-10-03T00:21:48.831Z,23.69
2018-10-03T00:22:48.827Z,23.60
2018-10-03T00:23:48.832Z,23.69
2018-10-03T00:24:48.806Z,23.69
2018-10-03T00:25:48.832Z,23.71
2018-10-03T00:26:48.839Z,23.71
2018-10-03T00:27:48.816Z,23.72
2018-10-03T00:28:48.771Z,23.60
2018-10-03T00:29:48.792Z,23.63
2018-10-03T00:30:48.784Z,23.62
2018-10-03T00:31:48.789Z,23.62
2018-10-03T00:32:48.773Z,23.60
2018-10-03T00:33:48.780Z,23.62
2018-10-03T00:34:48.798Z,23.54
2018-10-03T00:35:48.756Z,23.59
2018-10-03T00:36:48.803Z,23.60
2018-10-03T00:37:48.772Z,23.62
2018-10-03T00:38:48.747Z,23.60
2018-10-03T00:39:48.719Z,23.57
2018-10-03T00:40:48.740Z,23.59
2018-10-03T00:41:48.711Z,23.60
2018-10-03T00:42:48.764Z,23.60
2018-10-03T00:43:48.719Z,23.64
2018-10-03T00:44:48.728Z,23.64
2018-10-03T00:45:48.798Z,23.67
2018-10-03T00:46:48.725Z,23.62
2018-10-03T00:47:48.700Z,23.60
2018-10-03T00:48:48.714Z,23.60
2018-10-03T00:49:48.674Z,23.56
2018-10-03T00:50:48.670Z,23.64
2018-10-03T00:51:48.759Z,23.64
2018-10-03T00:52:48.648Z,23.67
2018-10-03T00:53:48.668Z,23.60
2018-10-03T00:54:48.919Z,23.63
2018-10-03T00:55:48.673Z,23.62
2018-10-03T00:56:48.653Z,23.59
2018-10-03T00:57:48.730Z,23.63
2018-10-03T00:58:48.623Z,23.63
2018-10-03T00:59:48.645Z,23.59
2018-10-03T01:00:48.606Z,23.59
2018-10-03T01:01:48.617Z,23.64
2018-10-03T01:02:48.613Z,23.68
2018-10-03T01:03:48.608Z,23.56
2018-10-03T01:04:48.560Z,23.45
2018-10-03T01:05:48.619Z,23.53
2018-10-03T01:06:48.586Z,23.42
2018-10-03T01:07:48.636Z,23.37
2018-10-03T01:08:48.570Z,23.38
2018-10-03T01:09:48.562Z,23.34
2018-10-03T01:10:48.546Z,23.29
2018-10-03T01:11:48.543Z,23.32
2018-10-03T01:12:48.532Z,23.34
2018-10-03T01:13:48.576Z,23.32
2018-10-03T01:14:48.526Z,23.38
2018-10-03T01:15:48.517Z,23.42
2018-10-03T01:16:48.495Z,23.42
2018-10-03T01:17:48.536Z,23.49
2018-10-03T01:18:48.483Z,23.42
2018-10-03T01:19:48.502Z,23.52
2018-10-03T01:20:48.504Z,23.39
2018-10-03T01:21:48.493Z,23.50
2018-10-03T01:22:48.488Z,23.47
2018-10-03T01:23:48.461Z,23.42
2018-10-03T01:24:48.465Z,23.45
2018-10-03T01:25:48.477Z,23.49
2018-10-03T01:26:48.458Z,23.52
2018-10-03T01:27:48.456Z,23.49
2018-10-03T01:28:48.490Z,23.52
2018-10-03T01:29:48.437Z,23.42
2018-10-03T01:30:48.447Z,23.49
2018-10-03T01:31:48.417Z,23.52
2018-10-03T01:32:48.469Z,23.42
2018-10-03T01:33:48.450Z,23.49
2018-10-03T01:34:48.397Z,23.52
2018-10-03T01:35:48.387Z,23.44
2018-10-03T01:36:48.393Z,23.44
2018-10-03T01:37:48.385Z,23.38
2018-10-03T01:38:48.390Z,23.38
2018-10-03T01:39:48.372Z,23.44
2018-10-03T01:40:48.390Z,23.42
2018-10-03T01:41:48.383Z,23.41
2018-10-03T01:42:48.380Z,23.26
2018-10-03T01:43:48.365Z,23.26
2018-10-03T01:44:48.393Z,23.23
2018-10-03T01:45:48.326Z,23.18
2018-10-03T01:46:48.330Z,23.22
2018-10-03T01:47:48.322Z,23.22
2018-10-03T01:48:48.337Z,23.07
2018-10-03T01:49:48.365Z,23.22
2018-10-03T01:50:48.312Z,23.22
2018-10-03T01:51:48.293Z,23.12
2018-10-03T01:52:48.288Z,23.12
2018-10-03T01:53:48.296Z,23.07
2018-10-03T01:54:48.515Z,23.11
2018-10-03T01:55:48.320Z,23.09
2018-10-03T01:56:48.269Z,23.11
2018-10-03T01:57:48.277Z,23.16
2018-10-03T01:58:48.280Z,23.09
2018-10-03T01:59:48.261Z,23.15
2018-10-03T02:00:48.282Z,23.16
2018-10-03T02:01:48.243Z,23.16
2018-10-03T02:02:48.249Z,23.18
2018-10-03T02:03:48.230Z,23.16
2018-10-03T02:04:48.398Z,23.25
2018-10-03T02:05:48.297Z,23.21
2018-10-03T02:06:48.222Z,23.22
2018-10-03T02:07:48.207Z,23.14
2018-10-03T02:08:48.221Z,23.23
2018-10-03T02:09:48.271Z,23.25
2018-10-03T02:10:48.191Z,23.16
2018-10-03T02:11:48.191Z,23.19
2018-10-03T02:12:48.179Z,23.29
2018-10-03T02:13:48.200Z,23.34
2018-10-03T02:14:48.241Z,23.19
2018-10-03T02:15:48.149Z,23.19
2018-10-03T02:16:48.145Z,23.21
2018-10-03T02:17:48.144Z,23.19
2018-10-03T02:18:48.152Z,23.16
2018-10-03T02:19:48.331Z,23.19
2018-10-03T02:20:48.149Z,23.22
2018-10-03T02:21:48.129Z,23.15
2018-10-03T02:22:48.129Z,23.18
2018-10-03T02:23:48.123Z,23.34
2018-10-03T02:24:48.157Z,23.18
2018-10-03T02:25:48.361Z,23.16
2018-10-03T02:26:48.106Z,23.18
2018-10-03T02:27:48.117Z,23.26
2018-10-03T02:28:48.062Z,23.23
2018-10-03T02:29:48.092Z,23.23
2018-10-03T02:30:48.162Z,23.26
2018-10-03T02:31:48.058Z,23.23
2018-10-03T02:32:48.048Z,23.23
2018-10-03T02:33:48.127Z,23.23
2018-10-03T02:34:48.074Z,23.29
2018-10-03T02:35:48.034Z,23.16
2018-10-03T02:36:48.266Z,23.23
2018-10-03T02:37:48.029Z,23.21
2018-10-03T02:38:48.009Z,23.16
2018-10-03T02:39:48.014Z,23.25
2018-10-03T02:40:48.002Z,23.14
2018-10-03T02:41:48.033Z,23.21
2018-10-03T02:42:47.995Z,23.21
2018-10-03T02:43:47.997Z,23.21
2018-10-03T02:44:48.014Z,23.19
2018-10-03T02:45:48.003Z,23.23
2018-10-03T02:46:47.982Z,23.23
2018-10-03T02:47:47.947Z,23.22
2018-10-03T02:48:48.005Z,23.15
2018-10-03T02:49:47.944Z,23.14
2018-10-03T02:50:47.943Z,23.19
2018-10-03T02:51:47.959Z,23.14
2018-10-03T02:52:47.919Z,23.19
2018-10-03T02:53:47.929Z,23.23
2018-10-03T02:54:47.913Z,23.22
2018-10-03T02:55:47.941Z,23.14
2018-10-03T02:56:47.923Z,23.12
2018-10-03T02:57:47.920Z,23.12
2018-10-03T02:58:47.908Z,23.14
2018-10-03T02:59:47.897Z,23.18
2018-10-03T03:00:47.882Z,23.09
2018-10-03T03:01:47.993Z,23.09
2018-10-03T03:02:47.874Z,23.15
2018-10-03T03:03:47.858Z,23.12
2018-10-03T03:04:47.868Z,23.07
2018-10-03T03:05:47.897Z,23.12
2018-10-03T03:06:47.852Z,23.15
2018-10-03T03:07:47.846Z,23.19
2018-10-03T03:08:47.965Z,23.09
2018-10-03T03:09:47.822Z,23.12
2018-10-03T03:10:47.834Z,23.07
2018-10-03T03:11:47.819Z,23.01
2018-10-03T03:12:47.798Z,22.97
2018-10-03T03:13:47.801Z,23.04
2018-10-03T03:14:47.908Z,22.99
2018-10-03T03:15:47.823Z,22.97
2018-10-03T03:16:47.817Z,22.94
2018-10-03T03:17:47.785Z,22.91
2018-10-03T03:18:47.760Z,22.99
2018-10-03T03:19:47.760Z,22.94
2018-10-03T03:20:47.773Z,22.97
2018-10-03T03:21:47.750Z,22.99
2018-10-03T03:22:47.743Z,22.96
2018-10-03T03:23:47.749Z,22.96
2018-10-03T03:24:47.715Z,22.97
2018-10-03T03:25:47.739Z,22.97
2018-10-03T03:26:47.751Z,23.09
2018-10-03T03:27:47.746Z,23.00
2018-10-03T03:28:47.696Z,23.04
2018-10-03T03:29:47.700Z,23.15
2018-10-03T03:30:47.823Z,23.00
2018-10-03T03:31:47.698Z,22.97
2018-10-03T03:32:47.731Z,23.03
2018-10-03T03:33:47.677Z,22.94
2018-10-03T03:34:47.662Z,22.85
2018-10-03T03:35:47.669Z,22.84
2018-10-03T03:36:47.770Z,22.78
2018-10-03T03:37:47.658Z,22.88
2018-10-03T03:38:47.651Z,22.84
2018-10-03T03:39:47.643Z,22.81
2018-10-03T03:40:47.620Z,22.86
2018-10-03T03:41:47.620Z,22.91
2018-10-03T03:42:47.734Z,22.88
2018-10-03T03:43:47.601Z,22.82
2018-10-03T03:44:47.624Z,22.85
2018-10-03T03:45:47.596Z,22.86
2018-10-03T03:46:47.659Z,22.82
2018-10-03T03:47:47.576Z,22.88
2018-10-03T03:48:47.589Z,22.70
2018-10-03T03:49:47.584Z,22.69
2018-10-03T03:50:47.555Z,22.63
2018-10-03T03:51:47.569Z,22.60
2018-10-03T03:52:47.560Z,22.52
2018-10-03T03:53:47.585Z,22.52
2018-10-03T03:54:47.540Z,22.54
2018-10-03T03:55:47.540Z,22.48
2018-10-03T03:56:47.556Z,22.45
2018-10-03T03:57:47.535Z,22.46
2018-10-03T03:58:47.520Z,22.44
2018-10-03T03:59:47.512Z,22.44
2018-10-03T04:00:47.507Z,22.49
2018-10-03T04:01:47.512Z,22.46
2018-10-03T04:02:47.512Z,22.52
2018-10-03T04:03:47.484Z,22.48
2018-10-03T04:04:47.483Z,22.41
2018-10-03T04:05:47.483Z,22.45
2018-10-03T04:06:47.463Z,22.48
2018-10-03T04:07:47.458Z,22.42
2018-10-03T04:08:47.688Z,22.56
2018-10-03T04:09:47.444Z,22.61
2018-10-03T04:10:47.474Z,22.54
2018-10-03T04:11:47.479Z,22.54
2018-10-03T04:12:47.421Z,22.60
2018-10-03T04:13:47.473Z,22.63
2018-10-03T04:14:47.416Z,22.57
2018-10-03T04:15:47.401Z,22.59
2018-10-03T04:16:47.400Z,22.56
2018-10-03T04:17:47.404Z,22.61
2018-10-03T04:18:47.407Z,22.56
2018-10-03T04:19:47.384Z,22.56
2018-10-03T04:20:47.393Z,22.61
2018-10-03T04:21:47.358Z,22.59
2018-10-03T04:22:47.361Z,22.57
2018-10-03T04:23:47.371Z,22.60
2018-10-03T04:24:47.401Z,22.46
2018-10-03T04:25:47.603Z,22.54
2018-10-03T04:26:47.342Z,22.56
2018-10-03T04:27:47.329Z,22.60
2018-10-03T04:28:47.312Z,22.60
2018-10-03T04:29:47.306Z,22.59
2018-10-03T04:30:47.456Z,22.56
2018-10-03T04:31:47.289Z,22.59
2018-10-03T04:32:47.292Z,22.60
2018-10-03T04:33:47.288Z,22.60
2018-10-03T04:34:47.268Z,22.59
2018-10-03T04:35:47.455Z,22.61
2018-10-03T04:36:47.377Z,22.66
2018-10-03T04:37:47.270Z,22.56
2018-10-03T04:38:47.251Z,22.56
2018-10-03T04:39:47.256Z,22.42
2018-10-03T04:40:47.230Z,22.44
2018-10-03T04:41:47.224Z,22.51
2018-10-03T04:42:47.228Z,22.51
2018-10-03T04:43:47.229Z,22.42
2018-10-03T04:44:47.200Z,22.49
2018-10-03T04:45:47.197Z,22.44
2018-10-03T04:46:47.211Z,22.44
2018-10-03T04:47:47.196Z,22.39
2018-10-03T04:48:47.223Z,22.45
2018-10-03T04:49:47.182Z,22.38
2018-10-03T04:50:47.178Z,22.45
2018-10-03T04:51:47.170Z,22.39
2018-10-03T04:52:47.210Z,22.35
2018-10-03T04:53:47.177Z,22.41
2018-10-03T04:54:47.154Z,22.23
2018-10-03T04:55:47.144Z,22.27
2018-10-03T04:56:47.134Z,22.39
2018-10-03T04:57:47.145Z,22.31
2018-10-03T04:58:47.124Z,22.27
2018-10-03T04:59:47.130Z,22.27
2018-10-03T05:00:47.158Z,22.29
2018-10-03T05:01:47.100Z,22.29
2018-10-03T05:02:47.087Z,22.26
2018-10-03T05:03:47.103Z,22.27
2018-10-03T05:04:47.097Z,22.41
2018-10-03T05:05:47.062Z,22.38
2018-10-03T05:06:47.073Z,22.31
2018-10-03T05:07:47.060Z,22.30
2018-10-03T05:08:47.045Z,22.31
2018-10-03T05:09:47.052Z,22.26
2018-10-03T05:10:47.033Z,22.24
2018-10-03T05:11:47.076Z,22.12
2018-10-03T05:12:47.033Z,22.21
2018-10-03T05:13:47.028Z,22.15
2018-10-03T05:14:47.032Z,22.05
2018-10-03T05:15:47.026Z,21.98
2018-10-03T05:16:47.011Z,22.02
2018-10-03T05:17:47.016Z,21.99
2018-10-03T05:18:47.102Z,21.89
2018-10-03T05:19:47.000Z,21.96
2018-10-03T05:20:46.989Z,21.86
2018-10-03T05:21:46.984Z,21.89
2018-10-03T05:22:46.985Z,21.89
2018-10-03T05:23:46.969Z,21.91
2018-10-03T05:24:47.116Z,21.75
2018-10-03T05:25:46.929Z,21.90
2018-10-03T05:26:46.958Z,21.82
2018-10-03T05:27:46.933Z,21.83
2018-10-03T05:28:46.916Z,21.86
2018-10-03T05:29:46.953Z,21.91
2018-10-03T05:30:46.899Z,21.89
2018-10-03T05:31:46.953Z,21.93
2018-10-03T05:32:46.924Z,21.89
2018-10-03T05:33:46.918Z,21.90
2018-10-03T05:34:46.863Z,21.91
2018-10-03T05:35:46.882Z,21.86
2018-10-03T05:36:46.875Z,21.77
2018-10-03T05:37:46.841Z,21.93
2018-10-03T05:38:46.836Z,21.82
2018-10-03T05:39:46.926Z,21.86
2018-10-03T05:40:47.124Z,21.89
2018-10-03T05:41:46.818Z,21.90
2018-10-03T05:42:46.872Z,21.94
2018-10-03T05:43:46.818Z,21.94
2018-10-03T05:44:46.807Z,21.94
2018-10-03T05:45:46.826Z,21.96
2018-10-03T05:46:46.799Z,22.08
2018-10-03T05:47:46.786Z,22.08
2018-10-03T05:48:46.822Z,22.08
2018-10-03T05:49:46.796Z,22.02
2018-10-03T05:50:46.778Z,22.01
2018-10-03T05:51:46.766Z,22.04
2018-10-03T05:52:46.769Z,22.05
2018-10-03T05:53:46.746Z,22.04
2018-10-03T05:54:46.864Z,22.11
2018-10-03T05:55:46.716Z,22.04
2018-10-03T05:56:46.724Z,21.98
2018-10-03T05:57:46.725Z,22.05
2018-10-03T05:58:46.727Z,22.08
2018-10-03T05:59:46.711Z,22.05
2018-10-03T06:00:46.720Z,22.01
2018-10-03T06:01:46.732Z,22.06
2018-10-03T06:02:46.743Z,22.02
2018-10-03T06:03:46.687Z,22.09
2018-10-03T06:04:46.661Z,22.02
2018-10-03T06:05:46.671Z,22.11
2018-10-03T06:06:46.663Z,22.02
2018-10-03T06:07:46.648Z,22.02
2018-10-03T06:08:46.640Z,22.01
2018-10-03T06:09:46.639Z,22.05
2018-10-03T06:10:46.627Z,22.12
2018-10-03T06:11:46.633Z,22.02
2018-10-03T06:12:46.631Z,22.02
2018-10-03T06:13:46.601Z,22.01
2018-10-03T06:14:46.606Z,22.04
2018-10-03T06:15:46.620Z,22.02
2018-10-03T06:16:46.585Z,22.06
2018-10-03T06:17:46.893Z,22.04
2018-10-03T06:18:46.651Z,22.09
2018-10-03T06:19:46.595Z,22.05
2018-10-03T06:20:46.565Z,21.99
2018-10-03T06:21:46.559Z,22.01
2018-10-03T06:22:46.568Z,22.05
2018-10-03T06:23:46.550Z,21.93
2018-10-03T06:24:46.540Z,22.04
2018-10-03T06:25:46.526Z,22.04
2018-10-03T06:26:46.537Z,22.06
2018-10-03T06:27:46.548Z,21.93
2018-10-03T06:28:46.489Z,21.94
2018-10-03T06:29:46.514Z,21.98
2018-10-03T06:30:46.543Z,21.91
2018-10-03T06:31:46.527Z,21.89
2018-10-03T06:32:46.490Z,21.90
2018-10-03T06:33:46.564Z,21.89
2018-10-03T06:34:46.471Z,21.90
2018-10-03T06:35:46.453Z,21.85
2018-10-03T06:36:46.469Z,21.91
2018-10-03T06:37:46.434Z,21.91
2018-10-03T06:38:46.519Z,21.90
2018-10-03T06:39:46.464Z,21.96
2018-10-03T06:40:46.418Z,21.94
2018-10-03T06:41:46.429Z,21.99
2018-10-03T06:42:46.413Z,22.05
2018-10-03T06:43:46.424Z,21.99
2018-10-03T06:44:46.744Z,22.08
2018-10-03T06:45:46.434Z,22.06
2018-10-03T06:46:46.385Z,22.04
2018-10-03T06:47:46.387Z,21.94
2018-10-03T06:48:46.416Z,21.94
2018-10-03T06:49:46.362Z,21.91
2018-10-03T06:50:46.450Z,21.89
2018-10-03T06:51:46.344Z,21.91
2018-10-03T06:52:46.389Z,21.94
2018-10-03T06:53:46.369Z,21.90
2018-10-03T06:54:46.329Z,21.99
2018-10-03T06:55:46.622Z,22.01
2018-10-03T06:56:46.302Z,22.06
2018-10-03T06:57:46.298Z,22.04
2018-10-03T06:58:46.336Z,22.04
2018-10-03T06:59:46.294Z,22.01
2018-10-03T07:00:46.298Z,22.11
2018-10-03T07:01:46.273Z,21.99
2018-10-03T07:02:46.268Z,21.94
2018-10-03T07:03:46.251Z,21.91
2018-10-03T07:04:46.284Z,21.98
2018-10-03T07:05:46.292Z,21.98
2018-10-03T07:06:46.250Z,21.98
2018-10-03T07:07:46.233Z,22.02
2018-10-03T07:08:46.218Z,21.93
2018-10-03T07:09:46.216Z,22.04
2018-10-03T07:10:46.210Z,22.01
2018-10-03T07:11:46.221Z,21.98
2018-10-03T07:12:46.210Z,21.99
2018-10-03T07:13:46.198Z,22.11
2018-10-03T07:14:46.194Z,21.91
2018-10-03T07:15:46.172Z,21.91
2018-10-03T07:16:46.167Z,21.86
2018-10-03T07:17:46.148Z,21.81
2018-10-03T07:18:46.161Z,21.68
2018-10-03T07:19:46.135Z,21.66
2018-10-03T07:20:46.139Z,21.68
2018-10-03T07:21:46.130Z,21.74
2018-10-03T07:22:46.120Z,21.82
2018-10-03T07:23:46.152Z,21.74
2018-10-03T07:24:46.107Z,21.74
2018-10-03T07:25:46.122Z,21.83
2018-10-03T07:26:46.095Z,21.89
2018-10-03T07:27:46.111Z,21.79
2018-10-03T07:28:46.126Z,21.79
2018-10-03T07:29:46.087Z,21.77
2018-10-03T07:30:46.080Z,21.71
2018-10-03T07:31:46.070Z,21.67
2018-10-03T07:32:46.258Z,21.68
2018-10-03T07:33:46.061Z,21.73
2018-10-03T07:34:46.069Z,21.66
2018-10-03T07:35:46.049Z,21.81
2018-10-03T07:36:46.050Z,21.81
2018-10-03T07:37:46.051Z,21.81
2018-10-03T07:38:46.120Z,21.77
2018-10-03T07:39:46.000Z,21.75
2018-10-03T07:40:46.003Z,21.75
2018-10-03T07:41:45.997Z,21.77
2018-10-03T07:42:46.031Z,21.77
2018-10-03T07:43:46.087Z,21.89
2018-10-03T07:44:45.954Z,21.89
2018-10-03T07:45:45.981Z,21.91
2018-10-03T07:46:45.973Z,21.86
2018-10-03T07:47:45.954Z,21.82
2018-10-03T07:48:46.239Z,21.85
2018-10-03T07:49:45.935Z,21.79
2018-10-03T07:50:45.949Z,21.85
2018-10-03T07:51:45.925Z,21.82
2018-10-03T07:52:45.909Z,21.75
2018-10-03T07:53:45.917Z,21.74
2018-10-03T07:54:45.919Z,21.82
2018-10-03T07:55:45.904Z,21.74
2018-10-03T07:56:45.904Z,21.81
2018-10-03T07:57:45.883Z,21.75
2018-10-03T07:58:45.866Z,21.68
2018-10-03T07:59:45.875Z,21.64
2018-10-03T08:00:45.864Z,21.66
2018-10-03T08:01:45.845Z,21.74
2018-10-03T08:02:45.858Z,21.70
2018-10-03T08:03:45.836Z,21.68
2018-10-03T08:04:45.860Z,21.66
2018-10-03T08:05:45.843Z,21.63
2018-10-03T08:06:45.835Z,21.61
2018-10-03T08:07:45.820Z,21.70
2018-10-03T08:08:45.814Z,21.73
2018-10-03T08:09:45.835Z,21.71
2018-10-03T08:10:45.798Z,21.66
2018-10-03T08:11:45.778Z,21.71
2018-10-03T08:12:45.762Z,21.71
2018-10-03T08:13:45.767Z,21.67
2018-10-03T08:14:45.872Z,21.67
2018-10-03T08:15:45.762Z,21.73
2018-10-03T08:16:45.746Z,21.71
2018-10-03T08:17:45.735Z,21.68
2018-10-03T08:18:45.742Z,21.61
2018-10-03T08:19:45.718Z,21.64
2018-10-03T08:20:45.737Z,21.58
2018-10-03T08:21:45.755Z,21.51
2018-10-03T08:22:45.704Z,21.61
2018-10-03T08:23:45.719Z,21.64
2018-10-03T08:24:45.695Z,21.68
2018-10-03T08:25:45.702Z,21.58
2018-10-03T08:26:45.936Z,21.67
2018-10-03T08:27:45.712Z,21.66
2018-10-03T08:28:45.668Z,21.64
2018-10-03T08:29:45.651Z,21.70
2018-10-03T08:30:45.647Z,21.71
2018-10-03T08:31:45.639Z,21.64
2018-10-03T08:32:45.761Z,21.67
2018-10-03T08:33:45.686Z,21.58
2018-10-03T08:34:45.618Z,21.52
2018-10-03T08:35:45.627Z,21.58
2018-10-03T08:36:45.594Z,21.63
2018-10-03T08:37:45.611Z,21.52
2018-10-03T08:38:45.637Z,21.56
2018-10-03T08:39:45.600Z,21.64
2018-10-03T08:40:45.589Z,21.66
2018-10-03T08:41:45.593Z,21.66
2018-10-03T08:42:45.565Z,21.63
2018-10-03T08:43:45.579Z,21.59
2018-10-03T08:44:45.597Z,21.58
2018-10-03T08:45:45.547Z,21.66
2018-10-03T08:46:45.595Z,21.64
2018-10-03T08:47:45.547Z,21.61
2018-10-03T08:48:45.515Z,21.66
2018-10-03T08:49:45.517Z,21.51
2018-10-03T08:50:45.494Z,21.59
2018-10-03T08:51:45.522Z,21.64
2018-10-03T08:52:45.482Z,21.61
2018-10-03T08:53:45.589Z,21.63
2018-10-03T08:54:45.525Z,21.67
2018-10-03T08:55:45.464Z,21.66
2018-10-03T08:56:45.475Z,21.66
2018-10-03T08:57:45.461Z,21.58
2018-10-03T08:58:45.472Z,21.64
2018-10-03T08:59:45.455Z,21.63
2018-10-03T09:00:45.444Z,21.71
2018-10-03T09:01:45.438Z,21.75
2018-10-03T09:02:45.405Z,21.73
2018-10-03T09:03:45.414Z,21.67
2018-10-03T09:04:45.403Z,21.66
2018-10-03T09:05:45.387Z,21.74
2018-10-03T09:06:45.389Z,21.81
2018-10-03T09:07:45.402Z,21.74
2018-10-03T09:08:45.389Z,21.86
2018-10-03T09:09:45.371Z,21.82
2018-10-03T09:10:45.351Z,21.85
2018-10-03T09:11:45.517Z,21.73
2018-10-03T09:12:45.367Z,21.81
2018-10-03T09:13:45.340Z,21.75
2018-10-03T09:14:45.353Z,21.82
2018-10-03T09:15:45.321Z,21.93
2018-10-03T09:16:45.305Z,21.91
2018-10-03T09:17:45.352Z,21.96
2018-10-03T09:18:45.322Z,21.94
2018-10-03T09:19:45.339Z,22.06
2018-10-03T09:20:45.275Z,22.01
2018-10-03T09:21:45.360Z,22.04
2018-10-03T09:22:45.275Z,21.98
2018-10-03T09:23:45.263Z,22.08
2018-10-03T09:24:45.370Z,22.12
2018-10-03T09:25:45.251Z,22.11
2018-10-03T09:26:45.249Z,22.17
2018-10-03T09:27:45.246Z,22.29
2018-10-03T09:28:45.243Z,22.33
2018-10-03T09:29:45.333Z,22.23
2018-10-03T09:30:45.217Z,22.29
2018-10-03T09:31:45.262Z,22.29
2018-10-03T09:32:45.209Z,22.39
2018-10-03T09:33:45.197Z,22.41
2018-10-03T09:34:45.262Z,22.44
2018-10-03T09:35:45.175Z,22.41
2018-10-03T09:36:45.234Z,22.45
2018-10-03T09:37:45.167Z,22.56
2018-10-03T09:38:45.156Z,22.46
2018-10-03T09:39:45.167Z,22.57
2018-10-03T09:40:45.157Z,22.61
2018-10-03T09:41:45.146Z,22.57
2018-10-03T09:42:45.147Z,22.59
2018-10-03T09:43:45.167Z,22.59
2018-10-03T09:44:45.155Z,22.54
2018-10-03T09:45:45.115Z,22.60
2018-10-03T09:46:45.117Z,22.66
2018-10-03T09:47:45.164Z,22.69
2018-10-03T09:48:45.104Z,22.69
2018-10-03T09:49:45.094Z,22.63
2018-10-03T09:50:45.116Z,22.67
2018-10-03T09:51:45.088Z,22.70
2018-10-03T09:52:45.060Z,22.74
2018-10-03T09:53:45.071Z,22.70
2018-10-03T09:54:45.073Z,22.66
2018-10-03T09:55:45.160Z,22.85
2018-10-03T09:56:45.042Z,22.86
2018-10-03T09:57:45.044Z,22.85
2018-10-03T09:58:45.031Z,22.86
2018-10-03T09:59:45.022Z,22.85
2018-10-03T10:00:45.036Z,22.93
2018-10-03T10:01:45.062Z,22.94
2018-10-03T10:02:45.016Z,22.93
2018-10-03T10:03:44.990Z,22.94
2018-10-03T10:04:44.981Z,23.07
2018-10-03T10:05:44.996Z,23.09
2018-10-03T10:06:44.978Z,23.15
2018-10-03T10:07:45.026Z,23.11
2018-10-03T10:08:44.978Z,23.18
2018-10-03T10:09:44.967Z,23.15
2018-10-03T10:10:44.963Z,23.18
2018-10-03T10:11:45.140Z,23.16
2018-10-03T10:12:44.950Z,23.25
2018-10-03T10:13:44.928Z,23.26
2018-10-03T10:14:44.934Z,23.19
2018-10-03T10:15:44.915Z,23.23
2018-10-03T10:16:45.025Z,23.35
2018-10-03T10:17:44.967Z,23.37
2018-10-03T10:18:44.902Z,23.39
2018-10-03T10:19:44.954Z,23.38
2018-10-03T10:20:44.941Z,23.47
2018-10-03T10:21:44.892Z,23.44
2018-10-03T10:22:44.928Z,23.52
2018-10-03T10:23:44.879Z,23.54
2018-10-03T10:24:44.883Z,23.57
2018-10-03T10:25:44.862Z,23.60
2018-10-03T10:26:44.859Z,23.60
2018-10-03T10:27:44.902Z,23.63
2018-10-03T10:28:44.852Z,23.50
2018-10-03T10:29:44.834Z,23.59
2018-10-03T10:30:44.890Z,23.63
2018-10-03T10:31:44.848Z,23.60
2018-10-03T10:32:44.965Z,23.67
2018-10-03T10:33:44.808Z,23.60
2018-10-03T10:34:44.841Z,23.59
2018-10-03T10:35:44.808Z,23.53
2018-10-03T10:36:44.804Z,23.63
2018-10-03T10:37:44.824Z,23.63
2018-10-03T10:38:44.834Z,23.62
2018-10-03T10:39:44.773Z,23.63
2018-10-03T10:40:44.961Z,23.64
2018-10-03T10:41:44.809Z,23.59
2018-10-03T10:42:44.762Z,23.60
2018-10-03T10:43:44.744Z,23.60
2018-10-03T10:44:44.752Z,23.64
2018-10-03T10:45:44.755Z,23.72
2018-10-03T10:46:44.777Z,23.77
2018-10-03T10:47:44.744Z,23.72
2018-10-03T10:48:44.732Z,23.75
2018-10-03T10:49:44.720Z,23.72
2018-10-03T10:50:44.723Z,23.77
2018-10-03T10:51:44.768Z,23.79
2018-10-03T10:52:44.706Z,23.72
2018-10-03T10:53:44.749Z,23.71
2018-10-03T10:54:44.685Z,23.72
2018-10-03T10:55:44.692Z,23.86
2018-10-03T10:56:44.732Z,23.84
2018-10-03T10:57:44.676Z,23.89
2018-10-03T10:58:44.675Z,23.97
2018-10-03T10:59:44.708Z,23.89
2018-10-03T11:00:44.702Z,23.92
2018-10-03T11:01:44.655Z,24.04
2018-10-03T11:02:44.654Z,24.04
2018-10-03T11:03:44.732Z,24.02
2018-10-03T11:04:44.627Z,24.15
2018-10-03T11:05:44.630Z,24.19
2018-10-03T11:06:44.626Z,24.27
2018-10-03T11:07:44.621Z,24.30
2018-10-03T11:08:44.714Z,24.21
2018-10-03T11:09:44.585Z,24.23
2018-10-03T11:10:44.596Z,24.31
2018-10-03T11:11:44.584Z,24.36
2018-10-03T11:12:44.572Z,24.34
2018-10-03T11:13:44.599Z,24.36
2018-10-03T11:14:44.562Z,24.48
2018-10-03T11:15:44.693Z,24.52
2018-10-03T11:16:44.590Z,24.61
2018-10-03T11:17:44.567Z,24.49
2018-10-03T11:18:44.551Z,24.64
2018-10-03T11:19:44.550Z,24.66
2018-10-03T11:20:44.548Z,24.71
2018-10-03T11:21:44.553Z,24.75
2018-10-03T11:22:44.533Z,24.89
2018-10-03T11:23:44.718Z,24.93
2018-10-03T11:24:44.630Z,24.97
2018-10-03T11:25:44.520Z,24.92
2018-10-03T11:26:44.552Z,24.92
2018-10-03T11:27:44.506Z,25.04
2018-10-03T11:28:44.500Z,25.07
2018-10-03T11:29:44.605Z,25.16
2018-10-03T11:30:44.489Z,25.09
2018-10-03T11:31:44.493Z,25.19
2018-10-03T11:32:44.498Z,25.23
2018-10-03T11:33:44.531Z,25.24
2018-10-03T11:34:44.590Z,25.36
2018-10-03T11:35:44.466Z,25.44
2018-10-03T11:36:44.468Z,25.42
2018-10-03T11:37:44.469Z,25.49
2018-10-03T11:38:44.459Z,25.51
2018-10-03T11:39:44.553Z,25.61
2018-10-03T11:40:44.438Z,25.72
2018-10-03T11:41:44.443Z,25.76
2018-10-03T11:42:44.434Z,25.74
2018-10-03T11:43:44.532Z,25.76
2018-10-03T11:44:44.529Z,25.71
2018-10-03T11:45:44.457Z,25.72
2018-10-03T11:46:44.398Z,25.91
2018-10-03T11:47:44.390Z,25.91
2018-10-03T11:48:44.414Z,26.09
2018-10-03T11:49:44.505Z,25.98
2018-10-03T11:50:44.479Z,25.98
2018-10-03T11:51:44.382Z,26.01
2018-10-03T11:52:44.431Z,26.09
2018-10-03T11:53:44.367Z,26.13
2018-10-03T11:54:44.357Z,26.03
2018-10-03T11:55:44.351Z,26.20
2018-10-03T11:56:44.358Z,26.23
2018-10-03T11:57:44.367Z,26.20
2018-10-03T11:58:44.395Z,26.29
2018-10-03T11:59:44.452Z,26.36
2018-10-03T12:00:44.371Z,26.46
2018-10-03T12:01:44.346Z,26.44
2018-10-03T12:02:44.416Z,26.50
2018-10-03T12:03:44.321Z,26.66
2018-10-03T12:04:44.430Z,26.79
2018-10-03T12:05:44.367Z,26.76
2018-10-03T12:06:44.358Z,26.98
2018-10-03T12:07:44.320Z,27.15
2018-10-03T12:08:44.300Z,27.48
2018-10-03T12:09:44.295Z,27.98
2018-10-03T12:10:44.407Z,28.36
2018-10-03T12:11:44.334Z,28.42
2018-10-03T12:12:44.301Z,28.39
2018-10-03T12:13:44.365Z,28.48
2018-10-03T12:14:44.296Z,28.76
2018-10-03T12:15:44.298Z,28.82
2018-10-03T12:16:44.292Z,28.73
2018-10-03T12:17:44.304Z,28.70
2018-10-03T12:18:44.338Z,29.05
2018-10-03T12:19:44.278Z,29.05
2018-10-03T12:20:44.281Z,29.15
2018-10-03T12:21:44.264Z,29.07
2018-10-03T12:22:44.322Z,29.08
2018-10-03T12:23:44.256Z,29.25
2018-10-03T12:24:44.263Z,29.45
2018-10-03T12:25:44.247Z,29.48
2018-10-03T12:26:46.355Z,29.82
2018-10-03T12:27:44.294Z,29.85
2018-10-03T12:28:44.258Z,30.06
2018-10-03T12:29:44.306Z,30.18
2018-10-03T12:30:44.254Z,30.19
2018-10-03T12:31:44.254Z,30.21
2018-10-03T12:32:44.258Z,30.22
2018-10-03T12:33:44.288Z,30.22
2018-10-03T12:34:44.238Z,30.15
2018-10-03T12:35:44.239Z,30.11
2018-10-03T12:36:44.238Z,30.18
2018-10-03T12:37:44.237Z,29.95
2018-10-03T12:38:44.244Z,29.97
2018-10-03T12:39:44.235Z,29.88
2018-10-03T12:40:44.308Z,29.88
2018-10-03T12:41:44.233Z,30.00
2018-10-03T12:42:44.231Z,30.11
2018-10-03T12:43:44.228Z,30.30
2018-10-03T12:44:44.223Z,30.37
2018-10-03T12:45:44.261Z,30.42
2018-10-03T12:46:44.292Z,30.45
2018-10-03T12:47:44.319Z,30.34
2018-10-03T12:48:44.224Z,30.26
2018-10-03T12:49:44.228Z,30.25
2018-10-03T12:50:44.221Z,30.34
2018-10-03T12:51:44.222Z,30.42
2018-10-03T12:52:44.387Z,30.61